createdAt,value
2023-07-07T00:01:11.392Z,15.30
2023-07-07T00:03:37.926Z,15.20
2023-07-07T00:06:04.622Z,15.10
2023-07-07T00:08:31.058Z,15.07
2023-07-07T00:10:59.742Z,14.99
2023-07-07T00:13:27.378Z,14.97
2023-07-07T00:16:01.302Z,14.88
2023-07-07T00:18:28.184Z,14.88
2023-07-07T00:20:58.459Z,14.79
2023-07-07T00:23:26.024Z,14.78
2023-07-07T00:26:19.474Z,14.71
2023-07-07T00:28:45.938Z,14.59
2023-07-07T00:31:12.856Z,14.64
2023-07-07T00:33:39.348Z,14.57
2023-07-07T00:36:08.587Z,14.48
2023-07-07T00:38:35.507Z,14.47
2023-07-07T00:41:06.835Z,14.47
2023-07-07T00:43:33.662Z,14.41
2023-07-07T00:46:01.301Z,14.30
2023-07-07T00:48:33.820Z,14.24
2023-07-07T00:51:19.514Z,14.23
2023-07-07T00:53:51.280Z,14.15
2023-07-07T00:56:24.657Z,14.14
2023-07-07T00:58:52.045Z,14.12
2023-07-07T01:01:23.988Z,14.09
2023-07-07T01:03:54.122Z,14.09
2023-07-07T01:06:27.287Z,14.04
2023-07-07T01:09:04.116Z,14.05
2023-07-07T01:11:31.411Z,14.03
2023-07-07T01:14:00.601Z,14.04
2023-07-07T01:16:33.125Z,14.02
2023-07-07T01:19:18.591Z,14.02
2023-07-07T01:22:20.013Z,13.96
2023-07-07T01:24:58.982Z,14.01
2023-07-07T01:27:44.154Z,13.96
2023-07-07T01:30:33.431Z,14.00
2023-07-07T01:33:04.861Z,14.00
2023-07-07T01:35:31.385Z,13.96
2023-07-07T01:38:00.949Z,13.95
2023-07-07T01:40:44.298Z,13.90
2023-07-07T01:43:21.237Z,13.93
2023-07-07T01:46:02.499Z,13.90
2023-07-07T01:48:42.618Z,13.91
2023-07-07T01:51:14.522Z,13.92
2023-07-07T01:53:43.596Z,13.88
2023-07-07T01:56:11.482Z,13.90
2023-07-07T01:58:40.369Z,13.90
2023-07-07T02:01:07.448Z,13.87
2023-07-07T02:03:33.919Z,13.86
2023-07-07T02:06:00.443Z,13.85
2023-07-07T02:08:26.914Z,13.83
2023-07-07T02:10:53.373Z,13.76
2023-07-07T02:13:20.015Z,13.76
2023-07-07T02:15:49.084Z,13.77
2023-07-07T02:18:15.799Z,13.72
2023-07-07T02:20:44.742Z,13.74
2023-07-07T02:23:11.175Z,13.63
2023-07-07T02:25:37.792Z,13.65
2023-07-07T02:28:04.499Z,13.61
2023-07-07T02:30:38.587Z,13.53
2023-07-07T02:33:09.821Z,13.52
2023-07-07T02:35:36.967Z,13.52
2023-07-07T02:38:03.507Z,13.43
2023-07-07T02:40:30.944Z,13.47
2023-07-07T02:42:59.809Z,13.41
2023-07-07T02:45:26.273Z,13.38
2023-07-07T02:47:55.620Z,13.35
2023-07-07T02:50:27.113Z,13.31
2023-07-07T02:52:53.536Z,13.27
2023-07-07T02:55:20.054Z,13.26
2023-07-07T02:57:49.084Z,13.16
2023-07-07T03:00:15.540Z,13.14
2023-07-07T03:02:42.929Z,13.16
2023-07-07T03:05:09.938Z,13.11
2023-07-07T03:07:36.360Z,13.13
2023-07-07T03:10:03.005Z,13.04
2023-07-07T03:12:29.410Z,13.08
2023-07-07T03:14:55.905Z,13.06
2023-07-07T03:17:23.348Z,13.02
2023-07-07T03:19:50.265Z,12.97
2023-07-07T03:22:17.105Z,12.97
2023-07-07T03:24:43.712Z,12.92
2023-07-07T03:27:10.097Z,12.89
2023-07-07T03:29:41.434Z,12.89
2023-07-07T03:32:08.485Z,12.84
2023-07-07T03:34:37.668Z,12.83
2023-07-07T03:37:06.535Z,12.85
2023-07-07T03:39:35.660Z,12.79
2023-07-07T03:42:02.255Z,12.77
2023-07-07T03:44:28.754Z,12.77
2023-07-07T03:46:55.264Z,12.79
2023-07-07T03:49:21.907Z,12.74
2023-07-07T03:51:48.385Z,12.77
2023-07-07T03:54:18.891Z,12.78
2023-07-07T03:56:47.754Z,12.80
2023-07-07T03:59:14.607Z,12.81
2023-07-07T04:01:44.118Z,12.82
2023-07-07T04:04:10.771Z,12.86
2023-07-07T04:06:38.488Z,12.86
2023-07-07T04:09:09.655Z,12.90
2023-07-07T04:11:36.125Z,12.90
2023-07-07T04:14:05.017Z,12.89
2023-07-07T04:16:34.635Z,12.92
2023-07-07T04:19:01.176Z,13.01
2023-07-07T04:21:29.420Z,13.04
2023-07-07T04:23:57.697Z,13.13
2023-07-07T04:26:26.167Z,13.19
2023-07-07T04:28:53.858Z,13.27
2023-07-07T04:31:22.416Z,13.36
2023-07-07T04:33:49.019Z,13.42
2023-07-07T04:36:15.576Z,13.48
2023-07-07T04:38:45.866Z,13.54
2023-07-07T04:41:18.868Z,13.63
2023-07-07T04:43:50.464Z,13.73
2023-07-07T04:46:21.473Z,13.81
2023-07-07T04:48:49.296Z,13.90
2023-07-07T04:51:21.783Z,14.02
2023-07-07T04:53:48.568Z,14.12
2023-07-07T04:56:21.334Z,14.24
2023-07-07T04:58:50.397Z,14.42
2023-07-07T05:01:28.112Z,14.52
2023-07-07T05:04:01.761Z,14.70
2023-07-07T05:06:32.308Z,14.82
2023-07-07T05:08:59.131Z,14.94
2023-07-07T05:11:29.042Z,15.12
2023-07-07T05:13:58.757Z,15.32
2023-07-07T05:16:28.967Z,15.46
2023-07-07T05:18:55.749Z,15.59
2023-07-07T05:21:25.725Z,15.80
2023-07-07T05:23:55.643Z,16.01
2023-07-07T05:26:24.105Z,16.18
2023-07-07T05:28:52.750Z,16.27
2023-07-07T05:31:19.662Z,16.43
2023-07-07T05:33:48.534Z,16.56
2023-07-07T05:36:15.036Z,16.68
2023-07-07T05:38:42.703Z,16.82
2023-07-07T05:41:11.887Z,16.94
2023-07-07T05:43:38.653Z,17.04
2023-07-07T05:46:13.154Z,17.20
2023-07-07T05:48:40.238Z,17.28
2023-07-07T05:51:08.942Z,17.43
2023-07-07T05:53:36.261Z,17.57
2023-07-07T05:56:08.312Z,17.65
2023-07-07T05:58:37.707Z,17.86
2023-07-07T06:01:04.871Z,17.93
2023-07-07T06:03:31.973Z,18.10
2023-07-07T06:05:59.053Z,18.22
2023-07-07T06:08:25.428Z,18.40
2023-07-07T06:10:52.405Z,18.52
2023-07-07T06:13:19.355Z,18.51
2023-07-07T06:15:48.726Z,18.70
2023-07-07T06:18:15.312Z,18.82
2023-07-07T06:20:41.794Z,18.98
2023-07-07T06:23:09.800Z,19.13
2023-07-07T06:25:36.288Z,19.15
2023-07-07T06:28:02.823Z,19.30
2023-07-07T06:30:30.057Z,19.40
2023-07-07T06:32:59.905Z,19.34
2023-07-07T06:35:27.573Z,19.47
2023-07-07T06:37:54.064Z,19.73
2023-07-07T06:40:20.500Z,19.89
2023-07-07T06:42:47.693Z,19.99
2023-07-07T06:45:14.267Z,20.00
2023-07-07T06:47:40.764Z,20.14
2023-07-07T06:50:07.778Z,20.40
2023-07-07T06:52:34.214Z,20.32
2023-07-07T06:55:00.625Z,20.51
2023-07-07T06:57:27.155Z,20.66
2023-07-07T06:59:53.583Z,20.53
2023-07-07T07:02:20.040Z,20.60
2023-07-07T07:04:47.359Z,20.67
2023-07-07T07:07:14.019Z,20.97
2023-07-07T07:09:40.393Z,21.25
2023-07-07T07:12:07.474Z,21.40
2023-07-07T07:14:33.880Z,21.48
2023-07-07T07:17:00.438Z,21.81
2023-07-07T07:19:29.101Z,21.90
2023-07-07T07:21:55.611Z,21.91
2023-07-07T07:24:25.910Z,21.82
2023-07-07T07:26:52.409Z,21.95
2023-07-07T07:29:18.935Z,22.17
2023-07-07T07:31:45.343Z,22.31
2023-07-07T07:34:30.281Z,22.46
2023-07-07T07:37:00.161Z,22.45
2023-07-07T07:39:27.856Z,22.71
2023-07-07T07:41:57.164Z,22.86
2023-07-07T07:44:26.292Z,23.00
2023-07-07T07:46:54.694Z,23.01
2023-07-07T07:49:23.477Z,23.40
2023-07-07T07:51:49.953Z,23.52
2023-07-07T07:54:19.601Z,23.56
2023-07-07T07:56:47.221Z,23.52
2023-07-07T07:59:14.165Z,23.69
2023-07-07T08:01:41.003Z,23.95
2023-07-07T08:04:07.876Z,24.06
2023-07-07T08:06:35.416Z,24.21
2023-07-07T08:09:02.249Z,24.34
2023-07-07T08:11:43.933Z,24.59
2023-07-07T08:14:11.311Z,24.60
2023-07-07T08:16:37.805Z,24.65
2023-07-07T08:21:38.667Z,24.81
2023-07-07T08:24:08.991Z,25.01
2023-07-07T08:26:36.956Z,24.99
2023-07-07T08:29:06.277Z,25.03
2023-07-07T08:31:33.992Z,25.24
2023-07-07T08:34:02.750Z,25.46
2023-07-07T08:36:32.563Z,25.40
2023-07-07T08:39:11.665Z,25.51
2023-07-07T08:41:39.134Z,25.53
2023-07-07T08:44:05.846Z,25.60
2023-07-07T08:46:48.478Z,25.80
2023-07-07T08:49:22.282Z,26.12
2023-07-07T08:52:02.865Z,26.32
2023-07-07T08:54:41.757Z,26.15
2023-07-07T08:57:11.639Z,26.09
2023-07-07T09:00:05.348Z,26.40
2023-07-07T09:02:52.986Z,26.56
2023-07-07T09:05:57.004Z,26.72
2023-07-07T09:08:41.804Z,26.56
2023-07-07T09:11:57.881Z,26.32
2023-07-07T09:14:28.059Z,26.44
2023-07-07T09:16:59.871Z,26.74
2023-07-07T09:19:37.823Z,26.73
2023-07-07T09:22:22.598Z,26.95
2023-07-07T09:25:06.735Z,27.05
2023-07-07T09:27:42.454Z,27.17
2023-07-07T09:30:21.023Z,27.31
2023-07-07T09:32:51.453Z,27.36
2023-07-07T09:35:23.492Z,27.62
2023-07-07T09:38:23.006Z,27.71
2023-07-07T09:41:00.298Z,27.82
2023-07-07T09:43:59.039Z,27.84
2023-07-07T09:46:36.051Z,27.74
2023-07-07T09:49:23.682Z,27.94
2023-07-07T09:52:02.795Z,27.88
2023-07-07T09:54:32.607Z,28.00
2023-07-07T09:57:16.582Z,28.12
2023-07-07T09:59:46.678Z,28.16
2023-07-07T10:02:17.974Z,28.29
2023-07-07T10:04:49.302Z,28.14
2023-07-07T10:07:18.457Z,28.37
2023-07-07T10:09:47.538Z,28.36
2023-07-07T10:12:25.978Z,28.53
2023-07-07T10:14:56.165Z,28.49
2023-07-07T10:17:47.622Z,28.79
2023-07-07T10:20:14.065Z,28.73
2023-07-07T10:22:40.558Z,28.97
2023-07-07T10:25:13.690Z,29.13
2023-07-07T10:27:50.326Z,29.31
2023-07-07T10:30:19.702Z,29.02
2023-07-07T10:32:49.530Z,29.18
2023-07-07T10:35:25.153Z,29.31
2023-07-07T10:37:53.994Z,29.56
2023-07-07T10:40:25.923Z,29.74
2023-07-07T10:42:55.205Z,29.69
2023-07-07T10:45:22.627Z,29.97
2023-07-07T10:47:49.337Z,29.80
2023-07-07T10:50:18.294Z,29.83
2023-07-07T10:55:36.038Z,29.86
2023-07-07T10:58:44.035Z,29.89
2023-07-07T11:01:40.455Z,29.95
2023-07-07T11:07:00.499Z,30.69
2023-07-07T11:09:45.537Z,30.88
2023-07-07T11:12:54.752Z,30.30
2023-07-07T11:15:32.262Z,30.85
2023-07-07T11:18:20.056Z,30.21
2023-07-07T11:21:18.938Z,30.38
2023-07-07T11:23:52.702Z,30.16
2023-07-07T11:26:19.286Z,30.24
2023-07-07T11:29:04.021Z,30.25
2023-07-07T11:32:12.326Z,30.04
2023-07-07T11:34:47.653Z,30.09
2023-07-07T11:37:23.490Z,30.32
2023-07-07T11:39:59.080Z,30.85
2023-07-07T11:42:29.150Z,30.76
2023-07-07T11:45:11.677Z,30.70
2023-07-07T11:47:57.153Z,30.81
2023-07-07T11:50:47.501Z,30.78
2023-07-07T11:53:36.016Z,30.71
2023-07-07T11:56:04.815Z,30.66
2023-07-07T11:59:03.571Z,30.75
2023-07-07T12:01:39.353Z,30.73
2023-07-07T12:04:34.344Z,30.69
2023-07-07T12:07:15.063Z,30.77
2023-07-07T12:09:45.699Z,30.81
2023-07-07T12:12:21.791Z,30.97
2023-07-07T12:15:13.573Z,30.95
2023-07-07T12:17:43.988Z,30.88
2023-07-07T12:20:21.428Z,31.02
2023-07-07T12:22:49.109Z,31.06
2023-07-07T12:25:30.430Z,31.12
2023-07-07T12:27:58.254Z,31.21
2023-07-07T12:30:33.536Z,31.19
2023-07-07T12:33:00.625Z,31.11
2023-07-07T12:35:37.184Z,30.60
2023-07-07T12:38:18.792Z,30.43
2023-07-07T12:40:46.336Z,30.69
2023-07-07T12:43:44.666Z,30.68
2023-07-07T12:46:20.498Z,30.60
2023-07-07T12:48:47.409Z,30.82
2023-07-07T12:51:16.199Z,31.04
2023-07-07T12:53:51.090Z,31.08
2023-07-07T12:56:20.686Z,31.07
2023-07-07T12:58:55.006Z,30.86
2023-07-07T13:01:37.494Z,30.99
2023-07-07T13:04:10.152Z,31.01
2023-07-07T13:06:46.415Z,30.99
2023-07-07T13:09:12.859Z,31.07
2023-07-07T13:11:44.884Z,31.18
2023-07-07T13:14:35.576Z,31.04
2023-07-07T13:17:09.534Z,31.31
2023-07-07T13:19:36.887Z,31.32
2023-07-07T13:22:18.526Z,31.34
2023-07-07T13:24:45.935Z,31.32
2023-07-07T13:27:18.689Z,30.99
2023-07-07T13:29:48.526Z,30.95
2023-07-07T13:32:39.164Z,30.91
2023-07-07T13:35:06.148Z,31.19
2023-07-07T13:37:33.893Z,31.29
2023-07-07T13:40:00.555Z,31.30
2023-07-07T13:42:36.275Z,31.32
2023-07-07T13:45:12.137Z,31.23
2023-07-07T13:47:43.810Z,31.03
2023-07-07T13:50:25.022Z,31.24
2023-07-07T13:52:56.113Z,31.48
2023-07-07T13:55:23.266Z,31.32
2023-07-07T13:57:49.944Z,31.32
2023-07-07T14:00:29.987Z,31.33
2023-07-07T14:02:57.317Z,31.31
2023-07-07T14:05:26.838Z,31.12
2023-07-07T14:07:58.261Z,31.08
2023-07-07T14:10:43.822Z,31.23
2023-07-07T14:13:22.731Z,31.22
2023-07-07T14:16:09.572Z,31.46
2023-07-07T14:18:41.403Z,31.20
2023-07-07T14:21:10.121Z,31.24
2023-07-07T14:23:39.561Z,31.23
2023-07-07T14:26:13.398Z,31.16
2023-07-07T14:28:40.800Z,31.19
2023-07-07T14:31:09.633Z,31.08
2023-07-07T14:33:55.471Z,31.05
2023-07-07T14:36:31.369Z,31.18
2023-07-07T14:38:59.000Z,31.11
2023-07-07T14:41:29.208Z,30.90
2023-07-07T14:43:55.818Z,31.05
2023-07-07T14:46:37.144Z,31.06
2023-07-07T14:49:20.865Z,31.11
2023-07-07T14:51:52.668Z,30.98
2023-07-07T14:54:26.946Z,31.01
2023-07-07T14:57:05.846Z,31.12
2023-07-07T14:59:35.805Z,31.08
2023-07-07T15:02:34.522Z,30.95
2023-07-07T15:05:20.441Z,30.96
2023-07-07T15:07:49.239Z,30.82
2023-07-07T15:10:15.923Z,30.79
2023-07-07T15:12:43.795Z,30.81
2023-07-07T15:15:14.541Z,30.77
2023-07-07T15:17:41.037Z,30.78
2023-07-07T15:20:16.242Z,30.77
2023-07-07T15:22:43.127Z,30.86
2023-07-07T15:25:10.156Z,30.85
2023-07-07T15:27:39.560Z,30.75
2023-07-07T15:30:17.469Z,30.63
2023-07-07T15:32:45.466Z,30.64
2023-07-07T15:35:17.171Z,30.56
2023-07-07T15:37:47.233Z,30.51
2023-07-07T15:40:22.032Z,30.45
2023-07-07T15:42:53.984Z,30.39
2023-07-07T15:45:20.566Z,30.36
2023-07-07T15:47:47.274Z,30.28
2023-07-07T15:50:20.453Z,30.36
2023-07-07T15:52:47.096Z,30.39
2023-07-07T15:55:13.669Z,30.41
2023-07-07T15:57:42.364Z,30.38
2023-07-07T16:00:31.747Z,30.33
2023-07-07T16:02:59.047Z,30.35
2023-07-07T16:05:28.100Z,30.30
2023-07-07T16:07:54.638Z,30.34
2023-07-07T16:10:21.260Z,30.43
2023-07-07T16:12:47.684Z,30.44
2023-07-07T16:15:16.443Z,30.35
2023-07-07T16:17:50.107Z,30.20
2023-07-07T16:20:22.027Z,30.20
2023-07-07T16:23:02.363Z,30.27
2023-07-07T16:25:29.666Z,30.25
2023-07-07T16:27:56.895Z,30.27
2023-07-07T16:30:29.062Z,30.14
2023-07-07T16:32:55.694Z,30.08
2023-07-07T16:35:23.329Z,30.09
2023-07-07T16:37:52.111Z,30.04
2023-07-07T16:40:21.139Z,30.01
2023-07-07T16:42:49.269Z,30.00
2023-07-07T16:45:19.396Z,30.11
2023-07-07T16:47:46.401Z,30.10
2023-07-07T16:50:30.239Z,30.05
2023-07-07T16:52:58.507Z,30.07
2023-07-07T16:55:28.484Z,30.03
2023-07-07T16:57:55.328Z,29.93
2023-07-07T17:00:23.231Z,30.19
2023-07-07T17:02:52.897Z,30.07
2023-07-07T17:05:22.183Z,30.17
2023-07-07T17:07:51.271Z,30.05
2023-07-07T17:10:41.236Z,30.06
2023-07-07T17:13:07.804Z,30.06
2023-07-07T17:15:41.697Z,30.05
2023-07-07T17:18:13.340Z,30.04
2023-07-07T17:20:40.224Z,30.06
2023-07-07T17:23:09.164Z,30.11
2023-07-07T17:25:35.654Z,29.95
2023-07-07T17:28:02.232Z,30.03
2023-07-07T17:30:32.233Z,29.97
2023-07-07T17:32:58.827Z,29.99
2023-07-07T17:35:29.223Z,29.99
2023-07-07T17:37:55.758Z,29.97
2023-07-07T17:40:39.472Z,29.98
2023-07-07T17:43:05.989Z,29.93
2023-07-07T17:45:34.766Z,29.88
2023-07-07T17:48:01.308Z,29.84
2023-07-07T17:50:40.990Z,29.79
2023-07-07T17:53:07.548Z,29.83
2023-07-07T17:55:34.085Z,29.79
2023-07-07T17:58:00.836Z,29.79
2023-07-07T18:00:35.441Z,29.74
2023-07-07T18:03:01.949Z,29.75
2023-07-07T18:05:30.167Z,29.67
2023-07-07T18:07:59.210Z,29.63
2023-07-07T18:10:31.711Z,29.65
2023-07-07T18:13:00.490Z,29.63
2023-07-07T18:15:28.841Z,29.56
2023-07-07T18:18:19.152Z,29.52
2023-07-07T18:21:13.832Z,29.42
2023-07-07T18:23:31.563Z,29.39
2023-07-07T18:25:58.469Z,29.30
2023-07-07T18:28:27.490Z,29.23
2023-07-07T18:30:57.353Z,29.19
2023-07-07T18:33:24.782Z,29.18
2023-07-07T18:35:51.524Z,29.10
2023-07-07T18:38:22.811Z,28.98
2023-07-07T18:40:49.669Z,28.75
2023-07-07T18:43:19.787Z,28.63
2023-07-07T18:45:46.273Z,28.62
2023-07-07T18:48:18.076Z,28.45
2023-07-07T18:50:47.934Z,28.40
2023-07-07T18:53:18.137Z,28.28
2023-07-07T18:55:46.122Z,28.26
2023-07-07T18:58:17.153Z,28.22
2023-07-07T19:00:44.212Z,28.14
2023-07-07T19:03:15.214Z,28.05
2023-07-07T19:05:41.886Z,28.01
2023-07-07T19:08:13.029Z,27.97
2023-07-07T19:10:43.327Z,27.88
2023-07-07T19:13:18.529Z,27.84
2023-07-07T19:15:51.435Z,27.61
2023-07-07T19:18:24.536Z,27.47
2023-07-07T19:20:53.464Z,27.33
2023-07-07T19:23:19.918Z,27.08
2023-07-07T19:25:46.596Z,26.81
2023-07-07T19:28:20.208Z,26.43
2023-07-07T19:30:46.626Z,26.37
2023-07-07T19:33:18.621Z,26.44
2023-07-07T19:35:46.384Z,26.36
2023-07-07T19:38:21.374Z,26.23
2023-07-07T19:40:57.591Z,25.95
2023-07-07T19:43:24.012Z,25.77
2023-07-07T19:45:54.901Z,25.70
2023-07-07T19:48:21.801Z,25.50
2023-07-07T19:50:55.010Z,25.57
2023-07-07T19:53:28.684Z,25.59
2023-07-07T19:55:56.364Z,25.62
2023-07-07T19:58:24.930Z,25.78
2023-07-07T20:00:51.679Z,25.71
2023-07-07T20:03:18.215Z,25.77
2023-07-07T20:05:44.898Z,25.93
2023-07-07T20:08:16.238Z,25.92
2023-07-07T20:10:43.969Z,25.85
2023-07-07T20:13:11.232Z,25.85
2023-07-07T20:15:39.301Z,25.75
2023-07-07T20:18:07.110Z,25.55
2023-07-07T20:20:33.534Z,25.55
2023-07-07T20:23:00.186Z,25.50
2023-07-07T20:25:28.131Z,25.60
2023-07-07T20:27:56.928Z,25.59
2023-07-07T20:30:27.323Z,25.45
2023-07-07T20:32:56.540Z,25.49
2023-07-07T20:35:23.490Z,25.62
2023-07-07T20:37:53.312Z,25.60
2023-07-07T20:40:24.269Z,25.65
2023-07-07T20:42:51.676Z,25.66
2023-07-07T20:45:22.728Z,25.62
2023-07-07T20:47:49.168Z,25.68
2023-07-07T20:50:26.237Z,25.73
2023-07-07T20:52:52.629Z,25.70
2023-07-07T20:55:20.003Z,25.58
2023-07-07T20:57:48.181Z,25.77
2023-07-07T21:00:23.881Z,25.79
2023-07-07T21:02:50.693Z,25.86
2023-07-07T21:05:18.240Z,25.93
2023-07-07T21:07:45.203Z,25.94
2023-07-07T21:10:25.465Z,26.00
2023-07-07T21:12:54.644Z,26.04
2023-07-07T21:15:25.054Z,26.03
2023-07-07T21:17:54.221Z,25.95
2023-07-07T21:20:31.103Z,25.88
2023-07-07T21:23:06.407Z,25.92
2023-07-07T21:25:33.077Z,25.95
2023-07-07T21:28:03.673Z,25.88
2023-07-07T21:30:30.532Z,25.90
2023-07-07T21:32:58.233Z,25.79
2023-07-07T21:35:24.657Z,25.78
2023-07-07T21:37:51.190Z,25.77
2023-07-07T21:40:22.209Z,25.68
2023-07-07T21:42:49.929Z,25.69
2023-07-07T21:45:22.689Z,25.62
2023-07-07T21:47:52.713Z,25.63
2023-07-07T21:50:20.802Z,25.48
2023-07-07T21:52:48.321Z,25.42
2023-07-07T21:55:17.184Z,25.38
2023-07-07T21:57:50.941Z,25.42
2023-07-07T22:00:19.605Z,25.48
2023-07-07T22:02:48.637Z,25.54
2023-07-07T22:05:15.737Z,25.51
2023-07-07T22:07:43.202Z,25.51
2023-07-07T22:10:27.945Z,25.54
2023-07-07T22:12:56.900Z,25.43
2023-07-07T22:15:24.097Z,25.38
2023-07-07T22:17:50.758Z,25.41
2023-07-07T22:20:35.602Z,25.38
2023-07-07T22:23:03.515Z,25.40
2023-07-07T22:25:34.277Z,25.41
2023-07-07T22:28:02.153Z,25.31
2023-07-07T22:30:35.963Z,25.31
2023-07-07T22:33:04.228Z,25.36
2023-07-07T22:35:31.249Z,25.33
2023-07-07T22:37:59.958Z,25.34
2023-07-07T22:40:34.480Z,25.32
2023-07-07T22:43:00.994Z,25.33
2023-07-07T22:45:28.309Z,25.30
2023-07-07T22:47:55.256Z,25.30
2023-07-07T22:50:25.183Z,25.29
2023-07-07T22:52:52.110Z,25.28
2023-07-07T22:55:30.264Z,25.19
2023-07-07T22:57:56.749Z,25.23
2023-07-07T23:00:25.432Z,25.19
2023-07-07T23:02:54.176Z,25.21
2023-07-07T23:05:22.250Z,25.10
2023-07-07T23:07:51.145Z,25.15
2023-07-07T23:10:24.922Z,25.18
2023-07-07T23:12:53.021Z,25.03
2023-07-07T23:15:21.225Z,25.10
2023-07-07T23:17:48.846Z,24.95
2023-07-07T23:20:23.561Z,24.96
2023-07-07T23:22:57.504Z,24.96
2023-07-07T23:25:26.678Z,24.99
2023-07-07T23:28:03.080Z,24.97
2023-07-07T23:30:40.000Z,24.89
2023-07-07T23:33:11.007Z,24.86
2023-07-07T23:35:44.134Z,24.87
2023-07-07T23:38:14.357Z,24.76
2023-07-07T23:40:40.981Z,24.77
2023-07-07T23:43:09.488Z,24.62
2023-07-07T23:45:36.292Z,24.62
2023-07-07T23:48:06.255Z,24.54
2023-07-07T23:50:39.137Z,24.40
2023-07-07T23:53:05.561Z,24.32
2023-07-07T23:55:32.520Z,24.22
2023-07-07T23:58:00.948Z,24.01
